Time;durP1;ratioP1;P1;durP2;ratioP2;P2;SDS_P1;SDS_P2;PMS_P1;PMS_P2;Temp;Humidity;BMP_temperature;BMP_pressure;BME280_temperature;BME280_humidity;BME280_pressure;Samples;Min_cycle;Max_cycle;Signal;HPM_P1;HPM_P2
2023/01/22 00:01:23;;;;;;;6.20;5.80;;;2.60;1.00;;;;;;6270765;28;20232;-56
2023/01/22 00:04:26;;;;;;;9.60;7.37;;;2.50;1.00;;;;;;6282287;28;20285;-55
2023/01/22 00:07:29;;;;;;;6.33;5.83;;;2.40;1.00;;;;;;6276865;28;20228;-55
2023/01/22 00:10:34;;;;;;;6.87;6.17;;;2.80;1.00;;;;;;6269108;28;20518;-57
2023/01/22 00:13:37;;;;;;;7.50;6.23;;;2.80;1.00;;;;;;6274510;28;20229;-57
2023/01/22 00:16:40;;;;;;;8.47;6.60;;;2.80;1.00;;;;;;6280107;28;20245;-57
2023/01/22 00:19:43;;;;;;;7.20;6.60;;;2.50;1.00;;;;;;6281906;28;20618;-57
2023/01/22 00:22:46;;;;;;;7.33;6.60;;;2.70;1.00;;;;;;6283442;28;20276;-57
2023/01/22 00:25:59;;;;;;;9.10;8.17;;;2.70;1.00;;;;;;6273805;28;20402;-58
2023/01/22 00:29:02;;;;;;;7.43;6.77;;;2.80;1.00;;;;;;6224202;28;1153798;-56
2023/01/22 00:32:06;;;;;;;7.90;7.23;;;2.80;1.00;;;;;;6261264;28;20247;-57
2023/01/22 00:35:09;;;;;;;6.77;6.37;;;2.40;1.00;;;;;;6277397;28;20245;-56
2023/01/22 00:38:12;;;;;;;7.67;7.00;;;2.60;1.00;;;;;;6282303;28;20670;-61
2023/01/22 00:41:18;;;;;;;7.10;6.60;;;2.40;1.00;;;;;;6282754;28;20606;-56
2023/01/22 00:44:21;;;;;;;6.77;6.37;;;2.70;1.00;;;;;;6280170;28;20720;-57
2023/01/22 00:47:24;;;;;;;8.87;7.20;;;2.60;1.00;;;;;;6282503;28;20428;-57
2023/01/22 00:50:28;;;;;;;7.33;6.53;;;2.40;1.00;;;;;;6282567;28;20245;-57
2023/01/22 00:53:31;;;;;;;8.50;7.80;;;2.60;1.00;;;;;;6281918;28;20263;-56
2023/01/22 00:56:35;;;;;;;7.73;7.03;;;2.40;1.00;;;;;;6281836;28;20228;-57
2023/01/22 00:59:38;;;;;;;7.10;6.40;;;2.50;1.00;;;;;;6273072;28;20237;-56
2023/01/22 01:06:00;;;;;;;7.20;6.57;;;2.80;1.00;;;;;;6282162;28;20825;-57
2023/01/22 01:09:04;;;;;;;6.90;6.50;;;2.50;1.00;;;;;;6272734;28;20468;-56
2023/01/22 01:12:08;;;;;;;6.93;6.43;;;2.50;1.00;;;;;;6274026;28;20321;-57
2023/01/22 01:15:12;;;;;;;6.63;6.13;;;2.70;1.00;;;;;;6276301;28;20343;-55
2023/01/22 01:18:15;;;;;;;6.20;5.90;;;2.70;1.00;;;;;;6256409;28;20626;-56
2023/01/22 01:21:19;;;;;;;8.37;6.43;;;2.60;1.00;;;;;;6256957;28;20618;-55
2023/01/22 01:24:22;;;;;;;9.10;7.00;;;2.50;1.00;;;;;;6261779;28;20313;-55
2023/01/22 01:27:30;;;;;;;8.37;6.80;;;2.60;1.00;;;;;;6261890;28;20230;-56
2023/01/22 01:30:33;;;;;;;7.00;6.53;;;2.60;1.00;;;;;;6261463;28;20236;-56
2023/01/22 01:33:36;;;;;;;7.50;6.93;;;2.50;1.00;;;;;;6271913;28;20811;-56
2023/01/22 01:36:39;;;;;;;6.97;6.50;;;2.70;1.00;;;;;;6286133;28;20237;-56
2023/01/22 01:39:51;;;;;;;7.33;6.83;;;2.60;1.00;;;;;;6285764;28;20245;-55
2023/01/22 01:42:56;;;;;;;7.47;6.77;;;2.50;1.00;;;;;;6274520;28;20467;-57
2023/01/22 01:46:02;;;;;;;7.00;6.57;;;2.40;1.00;;;;;;6286176;28;20463;-57
2023/01/22 01:49:06;;;;;;;7.77;7.10;;;2.40;1.00;;;;;;6276440;28;20248;-55
2023/01/22 01:52:12;;;;;;;7.40;6.80;;;2.80;1.00;;;;;;6261032;28;20234;-57
2023/01/22 01:55:16;;;;;;;7.57;6.87;;;2.80;1.00;;;;;;6253377;28;20234;-56
2023/01/22 01:58:21;;;;;;;7.00;6.40;;;2.70;1.00;;;;;;6261092;28;20757;-57
2023/01/22 02:01:26;;;;;;;7.03;6.53;;;2.60;1.00;;;;;;6261032;28;20230;-57
2023/01/22 02:04:29;;;;;;;6.83;6.33;;;2.80;1.00;;;;;;6283179;28;20295;-56
2023/01/22 02:07:32;;;;;;;6.40;5.87;;;2.80;1.00;;;;;;6281200;28;20237;-55
2023/01/22 02:10:36;;;;;;;6.87;6.57;;;2.50;1.00;;;;;;6284769;28;20241;-55
2023/01/22 02:13:45;;;;;;;6.13;5.73;;;2.70;1.00;;;;;;6281819;28;20351;-55
2023/01/22 02:16:48;;;;;;;7.07;6.20;;;2.60;1.00;;;;;;6261217;28;20238;-57
2023/01/22 02:19:51;;;;;;;6.27;5.97;;;2.70;1.00;;;;;;6260897;28;20656;-56
2023/01/22 02:22:56;;;;;;;5.80;5.60;;;2.70;1.00;;;;;;6260686;28;20722;-56
2023/01/22 02:26:00;;;;;;;5.43;5.27;;;2.50;1.00;;;;;;6260273;28;20234;-55
2023/01/22 02:29:03;;;;;;;7.00;6.37;;;2.50;1.00;;;;;;6260621;28;20649;-56
2023/01/22 02:32:06;;;;;;;6.80;6.20;;;2.90;1.00;;;;;;6262688;28;20230;-56
2023/01/22 02:35:09;;;;;;;6.20;5.80;;;2.80;1.00;;;;;;6277463;28;20233;-56
2023/01/22 02:38:14;;;;;;;6.27;6.03;;;2.50;1.00;;;;;;6284852;28;20830;-56
2023/01/22 02:41:17;;;;;;;6.30;6.00;;;2.40;1.00;;;;;;6284923;28;20226;-57
2023/01/22 02:44:20;;;;;;;5.87;5.47;;;2.80;1.00;;;;;;6283053;28;20478;-57
2023/01/22 02:47:23;;;;;;;6.50;6.07;;;2.40;1.00;;;;;;6284570;28;20248;-55
2023/01/22 02:50:26;;;;;;;6.00;5.60;;;2.60;1.00;;;;;;6284916;28;20241;-56
2023/01/22 02:53:30;;;;;;;5.63;5.43;;;2.30;1.00;;;;;;6265534;28;20723;-56
2023/01/22 02:56:33;;;;;;;6.07;5.50;;;2.70;1.00;;;;;;6259893;28;20234;-55
2023/01/22 02:59:36;;;;;;;5.67;5.40;;;2.70;1.00;;;;;;6259428;28;20872;-55
2023/01/22 03:02:39;;;;;;;6.30;5.90;;;2.70;1.00;;;;;;6274720;28;20807;-56
2023/01/22 03:05:49;;;;;;;6.30;5.80;;;2.60;1.00;;;;;;6278752;28;20241;-56
2023/01/22 03:08:56;;;;;;;5.90;5.60;;;2.40;1.00;;;;;;6279319;28;20245;-57
2023/01/22 03:11:59;;;;;;;5.43;5.13;;;2.50;1.00;;;;;;6284279;28;20240;-57
2023/01/22 03:21:43;;;;;;;6.27;5.77;;;2.40;1.00;;;;;;6284758;28;20689;-56
2023/01/22 03:24:50;;;;;;;5.83;5.33;;;2.60;1.00;;;;;;6264122;28;20798;-55
2023/01/22 03:28:15;;;;;;;6.60;6.20;;;2.30;1.00;;;;;;6275331;28;20328;-56
2023/01/22 03:31:18;;;;;;;6.13;5.73;;;2.50;1.00;;;;;;6274839;28;20253;-57
2023/01/22 03:34:22;;;;;;;6.30;5.97;;;2.80;1.00;;;;;;6281983;28;20233;-56
2023/01/22 03:37:26;;;;;;;5.87;5.67;;;2.70;1.00;;;;;;6284429;28;20687;-57
2023/01/22 03:40:30;;;;;;;5.60;5.30;;;2.60;1.00;;;;;;6272160;28;20240;-56
2023/01/22 03:43:33;;;;;;;5.30;5.10;;;2.40;1.00;;;;;;6274119;28;20236;-59
2023/01/22 03:46:38;;;;;;;5.70;5.50;;;2.60;1.00;;;;;;6283873;28;20243;-55
2023/01/22 03:49:41;;;;;;;5.93;5.67;;;2.40;1.00;;;;;;6285607;28;20511;-57
2023/01/22 03:52:44;;;;;;;6.03;5.73;;;2.70;1.00;;;;;;6285195;28;20240;-55
2023/01/22 03:55:56;;;;;;;6.03;5.73;;;2.60;1.00;;;;;;6283795;28;20241;-55
2023/01/22 03:58:59;;;;;;;5.67;5.47;;;2.50;1.00;;;;;;6259131;28;20246;-55
2023/01/22 04:02:02;;;;;;;5.40;5.20;;;2.40;1.00;;;;;;6260496;28;20256;-56
2023/01/22 04:05:07;;;;;;;5.90;5.70;;;2.40;1.00;;;;;;6284243;28;20897;-56
2023/01/22 04:08:09;;;;;;;6.30;6.00;;;2.40;1.00;;;;;;6283499;28;20999;-55
2023/01/22 04:11:14;;;;;;;6.00;5.80;;;2.30;1.00;;;;;;6277072;28;20737;-56
2023/01/22 04:14:17;;;;;;;6.23;5.83;;;2.60;1.00;;;;;;6270108;28;20244;-57
2023/01/22 04:17:21;;;;;;;7.07;6.57;;;2.40;1.00;;;;;;6283042;28;20770;-57
2023/01/22 04:20:24;;;;;;;6.57;6.17;;;2.40;1.00;;;;;;6281548;28;20233;-55
2023/01/22 04:23:27;;;;;;;6.10;5.80;;;2.70;1.00;;;;;;6258454;28;20719;-56
2023/01/22 04:26:31;;;;;;;6.13;5.83;;;2.50;1.00;;;;;;6258472;28;20240;-57
2023/01/22 04:29:34;;;;;;;6.27;5.97;;;2.70;1.00;;;;;;6258290;28;20738;-56
2023/01/22 04:32:38;;;;;;;6.73;6.37;;;2.70;1.00;;;;;;6254523;28;20599;-56
2023/01/22 04:36:05;;;;;;;5.93;5.73;;;2.50;1.00;;;;;;6274025;28;20233;-57
2023/01/22 04:39:08;;;;;;;6.17;5.87;;;2.40;1.00;;;;;;6271435;28;20236;-57
2023/01/22 04:42:12;;;;;;;6.30;6.00;;;2.60;1.00;;;;;;6279792;28;20236;-57
2023/01/22 04:45:16;;;;;;;6.83;6.33;;;2.40;1.00;;;;;;6280415;28;20407;-56
2023/01/22 04:48:19;;;;;;;7.10;6.60;;;2.30;1.00;;;;;;6282092;28;20685;-56
2023/01/22 04:51:23;;;;;;;7.93;7.47;;;2.70;1.00;;;;;;6288184;28;20702;-56
2023/01/22 04:54:26;;;;;;;6.27;5.90;;;2.60;1.00;;;;;;6274496;28;20234;-57
2023/01/22 04:57:30;;;;;;;7.43;6.93;;;2.40;1.00;;;;;;6278685;28;20236;-55
2023/01/22 05:00:33;;;;;;;7.27;6.93;;;2.40;1.00;;;;;;6286251;28;20872;-55
2023/01/22 05:03:36;;;;;;;6.23;5.93;;;2.40;1.00;;;;;;6280937;28;20716;-58
2023/01/22 05:06:39;;;;;;;6.43;6.17;;;2.70;1.00;;;;;;6285194;28;20498;-55
2023/01/22 05:09:42;;;;;;;6.90;6.47;;;2.30;1.00;;;;;;6285659;28;20403;-57
2023/01/22 05:12:47;;;;;;;7.07;6.60;;;2.30;1.00;;;;;;6277889;28;20468;-56
2023/01/22 05:15:50;;;;;;;7.60;7.20;;;2.50;1.00;;;;;;6281901;28;20245;-55
2023/01/22 05:18:53;;;;;;;7.07;6.77;;;2.30;1.00;;;;;;6286247;28;20245;-56
2023/01/22 05:21:56;;;;;;;7.03;6.67;;;2.60;1.00;;;;;;6277914;28;20237;-56
2023/01/22 05:24:59;;;;;;;7.57;7.13;;;2.40;1.00;;;;;;6285104;28;20252;-56
2023/01/22 05:28:04;;;;;;;7.43;7.03;;;2.60;1.00;;;;;;6288686;28;20601;-56
2023/01/22 05:31:07;;;;;;;7.67;7.27;;;2.40;1.00;;;;;;6279001;28;20238;-57
2023/01/22 05:34:10;;;;;;;7.07;6.77;;;2.60;1.00;;;;;;6278700;28;20244;-56
2023/01/22 05:37:13;;;;;;;8.80;8.10;;;2.40;1.00;;;;;;6285360;28;20717;-56
2023/01/22 05:40:16;;;;;;;7.40;7.03;;;2.60;1.00;;;;;;6290432;28;20245;-55
2023/01/22 05:43:22;;;;;;;7.80;7.33;;;2.40;1.00;;;;;;6286275;28;20870;-56
2023/01/22 05:46:25;;;;;;;8.10;7.60;;;2.60;1.00;;;;;;6285997;28;20760;-57
2023/01/22 05:49:28;;;;;;;7.53;7.13;;;2.40;1.00;;;;;;6285683;28;20330;-55
2023/01/22 05:52:31;;;;;;;8.77;8.07;;;2.30;1.00;;;;;;6284129;28;20233;-55
2023/01/22 05:55:35;;;;;;;8.33;7.93;;;2.40;1.00;;;;;;6279165;28;20737;-56
2023/01/22 05:58:39;;;;;;;8.30;7.80;;;2.20;1.00;;;;;;6282366;28;20358;-55
2023/01/22 06:01:42;;;;;;;8.10;7.50;;;2.50;1.00;;;;;;6270225;28;20234;-56
2023/01/22 06:04:45;;;;;;;9.33;8.83;;;2.20;1.00;;;;;;6280800;28;20738;-57
2023/01/22 06:07:48;;;;;;;8.60;8.10;;;2.30;1.00;;;;;;6282161;28;20726;-57
2023/01/22 06:10:58;;;;;;;8.87;8.27;;;2.30;1.00;;;;;;6272513;28;20611;-57
2023/01/22 06:14:02;;;;;;;8.37;7.90;;;2.50;1.00;;;;;;6284689;28;20240;-56
2023/01/22 06:17:05;;;;;;;7.93;7.53;;;2.40;1.00;;;;;;6276721;28;20324;-56
2023/01/22 06:20:10;;;;;;;8.90;8.30;;;2.30;1.00;;;;;;6280118;28;20238;-56
2023/01/22 06:23:13;;;;;;;8.90;8.30;;;2.40;1.00;;;;;;6281586;28;20256;-57
2023/01/22 06:26:16;;;;;;;8.80;8.20;;;2.50;1.00;;;;;;6279053;28;20316;-55
2023/01/22 06:29:21;;;;;;;8.50;8.00;;;2.40;1.00;;;;;;6279770;28;20355;-56
2023/01/22 06:32:24;;;;;;;8.20;7.80;;;2.60;1.00;;;;;;6286845;28;20674;-55
2023/01/22 06:35:27;;;;;;;8.43;7.93;;;2.40;1.00;;;;;;6284760;28;20237;-57
2023/01/22 06:38:31;;;;;;;8.90;8.30;;;2.40;1.00;;;;;;6281132;28;20710;-57
2023/01/22 06:41:34;;;;;;;8.60;8.00;;;2.50;1.00;;;;;;6272942;28;20745;-56
2023/01/22 06:44:38;;;;;;;9.23;8.47;;;2.30;1.00;;;;;;6271978;28;20239;-60
2023/01/22 06:47:43;;;;;;;9.10;8.50;;;2.30;1.00;;;;;;6280297;28;20249;-55
2023/01/22 06:50:46;;;;;;;8.13;7.73;;;2.40;1.00;;;;;;6270896;28;20644;-57
2023/01/22 06:53:49;;;;;;;9.13;8.53;;;2.60;1.00;;;;;;6277046;28;20246;-57
2023/01/22 06:56:52;;;;;;;8.97;8.37;;;2.40;1.00;;;;;;6275886;28;20287;-55
2023/01/22 06:59:57;;;;;;;9.47;8.73;;;2.30;1.00;;;;;;6283122;28;20260;-56
2023/01/22 07:03:00;;;;;;;9.20;8.57;;;2.40;1.00;;;;;;6280840;28;20233;-57
2023/01/22 07:06:04;;;;;;;10.17;9.37;;;2.30;1.00;;;;;;6281946;28;20240;-57
2023/01/22 07:09:08;;;;;;;9.73;9.00;;;2.30;1.00;;;;;;6285641;28;20233;-57
2023/01/22 07:12:11;;;;;;;9.80;9.10;;;2.40;1.00;;;;;;6282543;28;20791;-56
2023/01/22 07:15:16;;;;;;;10.10;9.30;;;2.60;1.00;;;;;;6275825;28;20225;-59
2023/01/22 07:18:22;;;;;;;9.93;9.23;;;2.30;1.00;;;;;;6280821;28;20245;-55
2023/01/22 07:21:26;;;;;;;9.63;8.93;;;2.40;1.00;;;;;;6278492;28;20233;-55
2023/01/22 07:24:29;;;;;;;9.80;9.10;;;2.50;1.00;;;;;;6280402;28;20316;-55
2023/01/22 07:27:33;;;;;;;9.97;9.30;;;2.30;1.00;;;;;;6276737;28;20232;-56
2023/01/22 07:30:39;;;;;;;10.27;9.53;;;2.30;1.00;;;;;;6278247;28;20278;-56
2023/01/22 07:33:42;;;;;;;9.23;8.53;;;2.30;1.00;;;;;;6280525;28;20623;-56
2023/01/22 07:36:46;;;;;;;9.13;8.47;;;2.50;1.00;;;;;;6282041;28;20241;-56
2023/01/22 07:39:49;;;;;;;10.57;9.67;;;2.20;1.00;;;;;;6281419;28;20241;-56
2023/01/22 07:42:53;;;;;;;9.47;8.80;;;2.40;1.00;;;;;;6268225;28;20237;-56
2023/01/22 07:46:00;;;;;;;9.80;8.90;;;2.60;1.00;;;;;;6260028;28;20232;-58
2023/01/22 07:49:03;;;;;;;10.10;9.23;;;2.50;1.00;;;;;;6269780;28;20236;-58
2023/01/22 07:52:06;;;;;;;10.20;9.43;;;2.40;1.00;;;;;;6287029;28;20237;-56
2023/01/22 07:55:09;;;;;;;9.67;8.97;;;2.60;1.00;;;;;;6270078;28;20228;-58
2023/01/22 07:58:13;;;;;;;9.30;8.70;;;2.40;1.00;;;;;;6275372;28;20236;-56
2023/01/22 08:01:17;;;;;;;9.23;8.53;;;2.40;1.00;;;;;;6268560;28;20232;-56
2023/01/22 08:04:20;;;;;;;9.73;8.87;;;2.50;1.00;;;;;;6282040;28;20330;-56
2023/01/22 08:07:23;;;;;;;9.33;8.73;;;2.60;1.00;;;;;;6280389;28;20230;-56
2023/01/22 08:10:29;;;;;;;8.87;8.17;;;2.50;1.00;;;;;;6279114;28;20287;-57
2023/01/22 08:13:32;;;;;;;9.27;8.47;;;2.90;1.00;;;;;;6277055;28;20748;-55
2023/01/22 08:16:37;;;;;;;8.77;8.23;;;2.80;1.00;;;;;;6271332;28;20492;-56
2023/01/22 08:19:40;;;;;;;9.00;8.40;;;2.80;1.00;;;;;;6268812;28;20706;-56
2023/01/22 08:22:44;;;;;;;8.70;8.20;;;2.70;1.00;;;;;;6288750;28;20233;-57
2023/01/22 08:25:47;;;;;;;8.30;7.77;;;2.80;1.00;;;;;;6271522;28;20229;-55
2023/01/22 08:28:50;;;;;;;8.37;7.80;;;2.80;1.00;;;;;;6280116;28;20650;-55
2023/01/22 08:31:54;;;;;;;8.30;7.80;;;2.80;1.00;;;;;;6271422;28;20648;-57
2023/01/22 08:34:58;;;;;;;9.10;8.40;;;3.00;1.00;;;;;;6272805;28;20295;-57
2023/01/22 08:38:01;;;;;;;8.43;7.93;;;2.90;1.00;;;;;;6268475;28;20237;-56
2023/01/22 08:41:05;;;;;;;8.90;8.30;;;2.80;1.00;;;;;;6277547;28;20808;-55
2023/01/22 08:44:11;;;;;;;8.53;8.00;;;3.00;1.00;;;;;;6284718;28;20229;-56
2023/01/22 08:47:15;;;;;;;8.63;8.03;;;3.10;1.00;;;;;;6265963;28;20229;-56
2023/01/22 08:50:19;;;;;;;9.10;8.50;;;2.90;1.00;;;;;;6275371;28;20247;-56
2023/01/22 08:53:22;;;;;;;9.10;8.50;;;2.80;1.00;;;;;;6284341;28;20232;-58
2023/01/22 08:56:25;;;;;;;8.63;8.03;;;2.90;1.00;;;;;;6283471;28;20572;-55
2023/01/22 08:59:28;;;;;;;9.57;8.80;;;3.00;1.00;;;;;;6281509;28;20495;-55
2023/01/22 09:02:34;;;;;;;9.27;8.43;;;2.70;1.00;;;;;;6284277;28;20263;-57
2023/01/22 09:05:38;;;;;;;9.80;9.10;;;2.80;1.00;;;;;;6285265;28;20367;-54
2023/01/22 09:08:42;;;;;;;9.57;8.87;;;2.80;1.00;;;;;;6275573;28;20717;-55
2023/01/22 09:11:45;;;;;;;9.47;8.87;;;2.90;1.00;;;;;;6284640;28;20237;-55
2023/01/22 09:14:48;;;;;;;10.93;9.90;;;2.70;1.00;;;;;;6280658;28;20233;-56
2023/01/22 09:17:53;;;;;;;10.23;9.53;;;2.90;1.00;;;;;;6282743;28;20304;-55
2023/01/22 09:20:57;;;;;;;11.20;10.30;;;3.10;1.00;;;;;;6285270;28;20609;-55
2023/01/22 09:24:00;;;;;;;12.27;11.07;;;3.10;1.00;;;;;;6275388;28;20315;-56
2023/01/22 09:27:03;;;;;;;10.87;9.97;;;3.10;1.00;;;;;;6275104;28;20243;-56
2023/01/22 09:30:08;;;;;;;10.60;9.80;;;3.10;1.00;;;;;;6284132;28;20275;-56
2023/01/22 09:33:12;;;;;;;10.30;9.37;;;3.10;1.00;;;;;;6285288;28;20443;-55
2023/01/22 09:36:17;;;;;;;10.07;9.37;;;3.20;1.00;;;;;;6273271;28;20229;-57
2023/01/22 09:39:20;;;;;;;10.00;9.17;;;3.30;1.00;;;;;;6284294;28;20241;-55
2023/01/22 09:42:28;;;;;;;10.93;10.03;;;2.90;1.00;;;;;;6271414;28;20230;-55
2023/01/22 09:45:33;;;;;;;10.80;9.83;;;3.10;1.00;;;;;;6278554;28;20759;-54
2023/01/22 09:48:43;;;;;;;10.83;9.97;;;3.00;1.00;;;;;;6274111;28;20248;-55
2023/01/22 09:51:51;;;;;;;11.33;10.33;;;3.10;1.00;;;;;;6273973;28;20233;-55
2023/01/22 09:54:54;;;;;;;10.97;10.07;;;2.70;1.00;;;;;;6269113;28;20713;-55
2023/01/22 09:58:01;;;;;;;10.13;9.33;;;2.90;1.00;;;;;;6283431;28;20615;-57
2023/01/22 10:01:06;;;;;;;10.63;9.83;;;3.00;1.00;;;;;;6269060;28;20667;-56
2023/01/22 10:04:29;;;;;;;10.77;9.87;;;3.00;1.00;;;;;;6278813;28;20249;-57
2023/01/22 10:07:37;;;;;;;10.37;9.57;;;3.00;1.00;;;;;;6283252;28;20335;-55
2023/01/22 10:10:40;;;;;;;9.87;9.17;;;3.20;1.00;;;;;;6268140;28;20324;-56
2023/01/22 10:13:44;;;;;;;10.93;10.10;;;3.00;1.00;;;;;;6277442;28;20492;-55
2023/01/22 10:16:47;;;;;;;11.70;10.60;;;2.70;1.00;;;;;;6271991;28;20631;-57
2023/01/22 10:19:55;;;;;;;11.33;10.33;;;2.90;1.00;;;;;;6285546;28;20629;-55
2023/01/22 10:23:02;;;;;;;11.43;10.37;;;3.30;1.00;;;;;;6275744;28;20293;-58
2023/01/22 10:26:16;;;;;;;10.73;9.90;;;2.90;1.00;;;;;;6270458;28;20237;-56
2023/01/22 10:29:24;;;;;;;11.57;10.67;;;3.00;1.00;;;;;;6281892;28;20253;-55
2023/01/22 10:32:28;;;;;;;11.40;10.20;;;3.00;1.00;;;;;;6290789;28;20265;-57
2023/01/22 10:35:43;;;;;;;11.27;10.43;;;3.20;1.00;;;;;;6275500;28;20234;-55
2023/01/22 10:38:46;;;;;;;10.13;9.40;;;3.20;1.00;;;;;;6272625;28;20618;-56
2023/01/22 10:41:50;;;;;;;11.10;10.30;;;3.30;1.00;;;;;;6276485;28;20624;-55
2023/01/22 10:44:56;;;;;;;13.00;11.80;;;3.10;1.00;;;;;;6269649;28;20225;-58
2023/01/22 10:48:12;;;;;;;13.03;11.93;;;3.40;1.00;;;;;;6274491;28;20330;-57
2023/01/22 10:51:21;;;;;;;12.90;11.80;;;3.20;1.00;;;;;;6279204;28;20710;-56
2023/01/22 10:54:33;;;;;;;11.80;10.70;;;3.00;1.00;;;;;;6270753;28;20233;-57
2023/01/22 10:57:38;;;;;;;12.27;11.07;;;3.40;1.00;;;;;;6274364;28;20242;-57
2023/01/22 11:00:42;;;;;;;11.87;10.87;;;3.30;1.00;;;;;;6274644;28;20299;-57
2023/01/22 11:03:54;;;;;;;11.93;10.83;;;3.30;1.00;;;;;;6284720;28;20234;-56
2023/01/22 11:07:05;;;;;;;12.20;11.20;;;3.30;1.00;;;;;;6281390;28;20229;-56
2023/01/22 11:10:16;;;;;;;12.00;10.90;;;3.40;1.00;;;;;;6283495;28;20241;-55
2023/01/22 11:13:24;;;;;;;12.80;11.73;;;3.50;1.00;;;;;;6275733;28;20240;-55
2023/01/22 11:16:32;;;;;;;11.70;10.77;;;3.20;1.00;;;;;;6273923;28;20679;-55
2023/01/22 11:19:41;;;;;;;13.03;11.83;;;3.40;1.00;;;;;;6271098;28;20241;-56
2023/01/22 11:22:59;;;;;;;13.13;12.03;;;3.50;1.00;;;;;;6273337;28;20684;-55
2023/01/22 11:26:14;;;;;;;11.53;10.63;;;3.50;1.00;;;;;;6284267;28;20237;-56
2023/01/22 11:29:26;;;;;;;11.50;10.57;;;3.50;1.00;;;;;;6278324;28;20597;-55
2023/01/22 11:32:45;;;;;;;11.30;10.40;;;3.70;1.00;;;;;;6073537;28;92606;-54
2023/01/22 11:35:53;;;;;;;11.43;10.53;;;3.60;1.00;;;;;;6250103;28;21707;-55
2023/01/22 11:39:07;;;;;;;10.37;9.57;;;3.60;1.00;;;;;;6246795;28;20442;-55
2023/01/22 11:42:23;;;;;;;11.93;10.83;;;3.50;1.00;;;;;;6256081;28;20314;-55
2023/01/22 11:45:49;;;;;;;11.73;10.57;;;3.40;1.00;;;;;;6257435;28;20706;-57
2023/01/22 11:49:00;;;;;;;11.40;10.47;;;3.50;1.00;;;;;;6261531;28;20728;-57
2023/01/22 11:52:16;;;;;;;11.23;10.33;;;3.60;1.00;;;;;;6256063;28;20248;-56
2023/01/22 11:55:57;;;;;;;11.53;10.73;;;3.40;1.00;;;;;;6245988;28;20230;-56
2023/01/22 11:59:08;;;;;;;10.80;9.90;;;3.60;1.00;;;;;;6251089;28;20292;-57
2023/01/22 12:02:29;;;;;;;11.67;10.60;;;3.60;1.00;;;;;;6242177;28;20698;-56
2023/01/22 12:05:43;;;;;;;11.23;10.23;;;3.40;1.00;;;;;;6253184;28;20321;-57
2023/01/22 12:08:58;;;;;;;11.73;10.83;;;3.40;1.00;;;;;;6256853;28;20245;-55
2023/01/22 12:12:20;;;;;;;11.40;10.50;;;3.60;1.00;;;;;;6249814;28;20249;-55
2023/01/22 12:15:35;;;;;;;10.93;10.03;;;3.50;1.00;;;;;;6248359;28;20681;-56
2023/01/22 12:19:01;;;;;;;12.00;11.00;;;3.60;1.00;;;;;;6249904;28;20635;-55
2023/01/22 12:22:09;;;;;;;11.37;10.27;;;3.60;1.00;;;;;;6245066;28;20235;-55
2023/01/22 12:25:19;;;;;;;11.67;10.77;;;3.50;1.00;;;;;;6252058;28;20546;-56
2023/01/22 12:28:28;;;;;;;10.53;9.83;;;3.60;1.00;;;;;;6251571;28;20283;-57
2023/01/22 12:31:37;;;;;;;11.33;10.33;;;3.60;1.00;;;;;;6235883;28;20254;-55
2023/01/22 12:34:46;;;;;;;11.57;10.67;;;3.50;1.00;;;;;;6244701;28;20254;-55
2023/01/22 12:37:54;;;;;;;12.50;11.30;;;3.60;1.00;;;;;;6253444;28;20242;-58
2023/01/22 12:41:13;;;;;;;13.20;11.90;;;3.40;1.00;;;;;;6259425;28;20238;-55
2023/01/22 12:44:30;;;;;;;13.07;11.97;;;3.60;1.00;;;;;;6253331;28;20257;-54
2023/01/22 12:47:47;;;;;;;13.07;11.97;;;3.50;1.00;;;;;;6248868;28;20222;-55
2023/01/22 12:50:51;;;;;;;13.33;12.07;;;3.50;1.00;;;;;;6248369;28;20238;-56
2023/01/22 12:53:54;;;;;;;13.20;12.00;;;3.60;1.00;;;;;;6259261;28;20230;-54
2023/01/22 12:57:11;;;;;;;12.70;11.63;;;3.40;1.00;;;;;;6255442;28;20245;-55
2023/01/22 13:00:26;;;;;;;13.60;12.20;;;3.60;1.00;;;;;;6248527;28;20258;-56
2023/01/22 13:03:31;;;;;;;12.93;11.73;;;3.50;1.00;;;;;;6256512;28;20296;-55
2023/01/22 13:06:38;;;;;;;13.63;12.43;;;3.40;1.00;;;;;;6254904;28;20632;-56
2023/01/22 13:09:41;;;;;;;14.87;13.27;;;3.40;1.00;;;;;;6252980;28;20242;-55
2023/01/22 13:12:48;;;;;;;13.60;12.20;;;3.50;1.00;;;;;;6256051;28;20230;-56
2023/01/22 13:15:53;;;;;;;14.07;12.40;;;3.40;1.00;;;;;;6259597;28;20249;-56
2023/01/22 13:18:58;;;;;;;14.57;12.27;;;3.30;1.00;;;;;;6259330;28;20379;-54
2023/01/22 13:22:03;;;;;;;13.17;11.87;;;3.50;1.00;;;;;;6263313;28;20348;-55
2023/01/22 13:25:06;;;;;;;14.27;12.57;;;3.30;1.00;;;;;;6268172;28;20252;-55
2023/01/22 13:28:16;;;;;;;13.23;12.03;;;3.20;1.00;;;;;;6258213;28;20244;-56
2023/01/22 13:31:19;;;;;;;15.67;13.07;;;3.20;1.00;;;;;;6260241;28;20507;-57
2023/01/22 13:34:24;;;;;;;14.77;13.13;;;3.40;1.00;;;;;;6262566;28;20229;-55
2023/01/22 13:37:27;;;;;;;14.33;12.93;;;3.30;1.00;;;;;;6257821;28;20231;-57
2023/01/22 13:40:30;;;;;;;14.37;12.97;;;3.20;1.00;;;;;;6256189;28;20234;-55
2023/01/22 13:43:48;;;;;;;15.47;13.20;;;3.30;1.00;;;;;;6255559;28;20242;-55
2023/01/22 13:46:52;;;;;;;14.47;12.50;;;3.20;1.00;;;;;;6255348;28;20726;-56
2023/01/22 13:49:57;;;;;;;15.03;13.43;;;3.30;1.00;;;;;;6256081;28;20344;-54
2023/01/22 13:53:01;;;;;;;14.87;13.27;;;3.30;1.00;;;;;;6258785;28;20242;-55
2023/01/22 13:56:05;;;;;;;15.73;13.93;;;3.10;1.00;;;;;;6253221;28;20226;-56
2023/01/22 13:59:19;;;;;;;15.13;13.53;;;3.10;1.00;;;;;;6238738;28;20249;-56
2023/01/22 14:02:23;;;;;;;15.67;14.13;;;3.10;1.00;;;;;;6265639;28;20238;-60
2023/01/22 14:05:29;;;;;;;16.27;14.63;;;3.20;1.00;;;;;;6260866;28;20332;-56
2023/01/22 14:08:43;;;;;;;15.83;14.17;;;2.90;1.00;;;;;;6256765;28;20237;-55
2023/01/22 14:11:47;;;;;;;17.37;15.07;;;3.20;1.00;;;;;;6253806;28;20227;-56
2023/01/22 14:14:52;;;;;;;16.27;14.57;;;3.20;1.00;;;;;;6252227;28;20606;-54
2023/01/22 14:18:07;;;;;;;17.60;15.00;;;3.00;1.00;;;;;;6260595;28;20230;-56
2023/01/22 14:21:11;;;;;;;19.33;14.63;;;3.10;1.00;;;;;;6253098;28;20231;-55
2023/01/22 14:24:15;;;;;;;20.13;15.50;;;3.20;1.00;;;;;;6259783;28;20469;-55
2023/01/22 14:27:18;;;;;;;17.83;15.93;;;3.00;1.00;;;;;;6253837;28;20303;-54
2023/01/22 14:30:22;;;;;;;18.70;14.87;;;3.10;1.00;;;;;;6257117;28;20249;-55
2023/01/22 14:33:28;;;;;;;16.13;14.47;;;3.10;1.00;;;;;;6241458;28;20234;-54
2023/01/22 14:36:32;;;;;;;17.23;14.57;;;2.90;1.00;;;;;;6256345;28;20252;-55
2023/01/22 14:39:36;;;;;;;18.53;15.40;;;2.90;1.00;;;;;;6256242;28;20238;-56
2023/01/22 14:42:39;;;;;;;16.87;15.07;;;3.00;1.00;;;;;;6265657;28;20242;-56
2023/01/22 14:45:43;;;;;;;21.57;16.77;;;3.00;1.00;;;;;;6253884;28;20241;-56
2023/01/22 14:48:47;;;;;;;19.80;16.13;;;3.00;1.00;;;;;;6245693;28;20445;-57
2023/01/22 14:51:53;;;;;;;17.40;15.17;;;2.90;1.00;;;;;;6249999;28;20704;-55
2023/01/22 14:54:57;;;;;;;18.73;15.30;;;3.00;1.00;;;;;;6254051;28;20884;-57
2023/01/22 14:58:00;;;;;;;19.17;15.37;;;3.00;1.00;;;;;;6253027;28;20234;-58
2023/01/22 15:01:15;;;;;;;17.07;15.20;;;2.90;1.00;;;;;;6245916;28;20874;-57
2023/01/22 15:04:18;;;;;;;15.67;13.90;;;3.00;1.00;;;;;;6257686;28;20345;-56
2023/01/22 15:07:22;;;;;;;18.73;15.17;;;3.00;1.00;;;;;;6258609;28;20261;-56
2023/01/22 15:10:25;;;;;;;21.43;15.93;;;3.00;1.00;;;;;;6265037;28;20238;-56
2023/01/22 15:13:28;;;;;;;20.07;15.80;;;2.70;1.00;;;;;;6255813;28;20234;-54
2023/01/22 15:16:32;;;;;;;19.97;15.60;;;3.00;1.00;;;;;;6257078;28;20234;-55
2023/01/22 15:19:35;;;;;;;19.37;14.97;;;2.80;1.00;;;;;;6256455;28;20248;-55
2023/01/22 15:22:44;;;;;;;22.73;16.40;;;2.90;1.00;;;;;;6260512;28;20232;-55
2023/01/22 15:25:56;;;;;;;21.33;16.87;;;2.90;1.00;;;;;;6257579;28;20246;-55
2023/01/22 15:28:59;;;;;;;22.03;16.53;;;2.90;1.00;;;;;;6252161;28;20754;-56
2023/01/22 15:32:03;;;;;;;23.17;16.33;;;3.00;1.00;;;;;;6259279;28;20232;-56
2023/01/22 15:35:06;;;;;;;22.57;16.40;;;3.00;1.00;;;;;;6258281;28;20816;-55
2023/01/22 15:38:11;;;;;;;20.03;15.37;;;2.90;1.00;;;;;;6245686;28;20257;-55
2023/01/22 15:41:22;;;;;;;22.23;15.77;;;2.60;1.00;;;;;;6245901;28;20615;-56
2023/01/22 15:44:25;;;;;;;23.73;16.33;;;2.90;1.00;;;;;;6254883;28;20318;-56
2023/01/22 15:47:28;;;;;;;23.27;16.83;;;3.00;1.00;;;;;;6258785;28;20612;-55
2023/01/22 15:50:31;;;;;;;21.57;16.60;;;2.90;1.00;;;;;;6265434;28;20238;-56
2023/01/22 15:53:36;;;;;;;20.50;16.40;;;2.70;1.00;;;;;;6256185;28;20229;-55
2023/01/22 15:56:39;;;;;;;22.20;17.00;;;2.90;1.00;;;;;;6257204;28;20707;-55
2023/01/22 15:59:42;;;;;;;28.47;18.30;;;2.90;1.00;;;;;;6253896;28;20243;-54
2023/01/22 16:02:45;;;;;;;20.30;16.20;;;2.90;1.00;;;;;;6258674;28;20238;-57
2023/01/22 16:05:48;;;;;;;24.40;17.40;;;2.90;1.00;;;;;;6259166;28;20440;-55
2023/01/22 16:08:56;;;;;;;23.37;17.10;;;2.70;1.00;;;;;;6255689;28;20268;-55
2023/01/22 16:11:59;;;;;;;23.40;17.50;;;2.80;1.00;;;;;;6257465;28;20636;-55
2023/01/22 16:15:02;;;;;;;22.47;17.63;;;3.00;1.00;;;;;;6248694;28;20332;-55
2023/01/22 16:18:06;;;;;;;23.07;16.77;;;2.60;1.00;;;;;;6257379;28;20718;-54
2023/01/22 16:21:10;;;;;;;22.80;17.43;;;2.70;1.00;;;;;;6256882;28;20250;-55
2023/01/22 16:24:14;;;;;;;20.80;16.93;;;2.90;1.00;;;;;;6254008;28;20244;-55
2023/01/22 16:27:17;;;;;;;23.47;16.60;;;2.70;1.00;;;;;;6255505;28;20257;-57
2023/01/22 16:30:20;;;;;;;20.27;16.77;;;2.90;1.00;;;;;;6254134;28;20750;-57